sensor_id;sensor_type;location;lat;lon;timestamp;P1;durP1;ratioP1;P2;durP2;ratioP2
17790;SDS011;9019;48.132;-1.210;2023-04-03T00:01:35;14.33;;;5.60;;
17790;SDS011;9019;48.132;-1.210;2023-04-03T00:04:03;16.97;;;4.80;;
17790;SDS011;9019;48.132;-1.210;2023-04-03T00:06:32;15.47;;;4.30;;
17790;SDS011;9019;48.132;-1.210;2023-04-03T00:09:00;13.53;;;4.37;;
17790;SDS011;9019;48.132;-1.210;2023-04-03T00:11:27;12.37;;;4.03;;
17790;SDS011;9019;48.132;-1.210;2023-04-03T00:13:54;13.03;;;4.30;;
17790;SDS011;9019;48.132;-1.210;2023-04-03T00:16:21;13.03;;;4.40;;
17790;SDS011;9019;48.132;-1.210;2023-04-03T00:18:48;17.30;;;4.40;;
17790;SDS011;9019;48.132;-1.210;2023-04-03T00:21:16;13.23;;;4.27;;
17790;SDS011;9019;48.132;-1.210;2023-04-03T00:23:44;12.13;;;4.00;;
17790;SDS011;9019;48.132;-1.210;2023-04-03T00:26:12;14.30;;;3.90;;
17790;SDS011;9019;48.132;-1.210;2023-04-03T00:28:39;12.57;;;4.60;;
17790;SDS011;9019;48.132;-1.210;2023-04-03T00:31:06;13.50;;;3.80;;
17790;SDS011;9019;48.132;-1.210;2023-04-03T00:33:33;17.53;;;4.00;;
17790;SDS011;9019;48.132;-1.210;2023-04-03T00:36:04;16.27;;;4.03;;
17790;SDS011;9019;48.132;-1.210;2023-04-03T00:38:32;10.80;;;4.30;;
17790;SDS011;9019;48.132;-1.210;2023-04-03T00:41:01;16.13;;;4.20;;
17790;SDS011;9019;48.132;-1.210;2023-04-03T00:43:28;12.53;;;3.73;;
17790;SDS011;9019;48.132;-1.210;2023-04-03T00:45:55;17.73;;;4.13;;
17790;SDS011;9019;48.132;-1.210;2023-04-03T00:48:24;16.97;;;4.60;;
17790;SDS011;9019;48.132;-1.210;2023-04-03T00:50:53;14.73;;;4.13;;
17790;SDS011;9019;48.132;-1.210;2023-04-03T00:53:21;14.63;;;4.23;;
17790;SDS011;9019;48.132;-1.210;2023-04-03T00:55:49;13.57;;;4.03;;
17790;SDS011;9019;48.132;-1.210;2023-04-03T00:58:19;14.83;;;4.07;;
17790;SDS011;9019;48.132;-1.210;2023-04-03T01:00:48;17.00;;;4.20;;
17790;SDS011;9019;48.132;-1.210;2023-04-03T01:03:16;12.70;;;3.63;;
17790;SDS011;9019;48.132;-1.210;2023-04-03T01:05:43;12.67;;;4.40;;
17790;SDS011;9019;48.132;-1.210;2023-04-03T01:08:11;12.93;;;4.33;;
17790;SDS011;9019;48.132;-1.210;2023-04-03T01:10:38;13.97;;;3.63;;
17790;SDS011;9019;48.132;-1.210;2023-04-03T01:13:17;13.07;;;3.77;;
17790;SDS011;9019;48.132;-1.210;2023-04-03T01:15:46;10.87;;;3.90;;
17790;SDS011;9019;48.132;-1.210;2023-04-03T01:18:13;15.20;;;4.17;;
17790;SDS011;9019;48.132;-1.210;2023-04-03T01:23:41;18.93;;;4.40;;
17790;SDS011;9019;48.132;-1.210;2023-04-03T01:26:12;10.90;;;3.70;;
17790;SDS011;9019;48.132;-1.210;2023-04-03T01:28:40;13.43;;;4.30;;
17790;SDS011;9019;48.132;-1.210;2023-04-03T01:31:11;20.60;;;4.63;;
17790;SDS011;9019;48.132;-1.210;2023-04-03T01:33:41;14.27;;;4.43;;
17790;SDS011;9019;48.132;-1.210;2023-04-03T01:36:09;12.17;;;4.50;;
17790;SDS011;9019;48.132;-1.210;2023-04-03T01:38:37;14.50;;;4.60;;
17790;SDS011;9019;48.132;-1.210;2023-04-03T01:41:04;11.40;;;4.27;;
17790;SDS011;9019;48.132;-1.210;2023-04-03T01:43:31;18.23;;;4.80;;
17790;SDS011;9019;48.132;-1.210;2023-04-03T01:45:58;12.50;;;4.23;;
17790;SDS011;9019;48.132;-1.210;2023-04-03T01:48:25;14.17;;;4.47;;
17790;SDS011;9019;48.132;-1.210;2023-04-03T01:50:54;10.40;;;4.27;;
17790;SDS011;9019;48.132;-1.210;2023-04-03T01:53:21;14.10;;;3.90;;
17790;SDS011;9019;48.132;-1.210;2023-04-03T01:55:48;15.70;;;4.60;;
17790;SDS011;9019;48.132;-1.210;2023-04-03T01:58:16;12.60;;;3.97;;
17790;SDS011;9019;48.132;-1.210;2023-04-03T02:00:43;12.30;;;4.10;;
17790;SDS011;9019;48.132;-1.210;2023-04-03T02:03:10;14.23;;;3.47;;
17790;SDS011;9019;48.132;-1.210;2023-04-03T02:05:37;14.40;;;4.60;;
17790;SDS011;9019;48.132;-1.210;2023-04-03T02:08:06;16.80;;;4.13;;
17790;SDS011;9019;48.132;-1.210;2023-04-03T02:10:33;11.77;;;3.70;;
17790;SDS011;9019;48.132;-1.210;2023-04-03T02:13:00;10.00;;;3.80;;
17790;SDS011;9019;48.132;-1.210;2023-04-03T02:15:28;14.17;;;3.50;;
17790;SDS011;9019;48.132;-1.210;2023-04-03T02:17:55;12.33;;;3.90;;
17790;SDS011;9019;48.132;-1.210;2023-04-03T02:20:22;13.77;;;4.13;;
17790;SDS011;9019;48.132;-1.210;2023-04-03T02:22:49;14.53;;;4.37;;
17790;SDS011;9019;48.132;-1.210;2023-04-03T02:25:18;15.17;;;3.77;;
17790;SDS011;9019;48.132;-1.210;2023-04-03T02:27:45;12.77;;;3.60;;
17790;SDS011;9019;48.132;-1.210;2023-04-03T02:30:12;12.27;;;4.10;;
17790;SDS011;9019;48.132;-1.210;2023-04-03T02:32:40;12.90;;;4.07;;
17790;SDS011;9019;48.132;-1.210;2023-04-03T02:35:07;14.70;;;4.23;;
17790;SDS011;9019;48.132;-1.210;2023-04-03T02:37:35;19.23;;;4.77;;
17790;SDS011;9019;48.132;-1.210;2023-04-03T02:40:03;16.17;;;4.47;;
17790;SDS011;9019;48.132;-1.210;2023-04-03T02:42:32;12.97;;;4.27;;
17790;SDS011;9019;48.132;-1.210;2023-04-03T02:44:59;14.03;;;3.97;;
17790;SDS011;9019;48.132;-1.210;2023-04-03T02:47:26;13.13;;;3.87;;
17790;SDS011;9019;48.132;-1.210;2023-04-03T02:49:53;14.73;;;4.27;;
17790;SDS011;9019;48.132;-1.210;2023-04-03T02:52:21;12.70;;;4.27;;
17790;SDS011;9019;48.132;-1.210;2023-04-03T02:54:48;12.90;;;4.20;;
17790;SDS011;9019;48.132;-1.210;2023-04-03T02:57:15;12.07;;;4.37;;
17790;SDS011;9019;48.132;-1.210;2023-04-03T02:59:44;8.50;;;3.40;;
17790;SDS011;9019;48.132;-1.210;2023-04-03T03:02:11;11.03;;;3.93;;
17790;SDS011;9019;48.132;-1.210;2023-04-03T03:04:38;10.93;;;3.70;;
17790;SDS011;9019;48.132;-1.210;2023-04-03T03:07:05;10.70;;;5.37;;
17790;SDS011;9019;48.132;-1.210;2023-04-03T03:09:32;11.53;;;3.93;;
17790;SDS011;9019;48.132;-1.210;2023-04-03T03:12:00;11.23;;;4.13;;
17790;SDS011;9019;48.132;-1.210;2023-04-03T03:14:27;11.90;;;4.53;;
17790;SDS011;9019;48.132;-1.210;2023-04-03T03:16:55;12.40;;;4.40;;
17790;SDS011;9019;48.132;-1.210;2023-04-03T03:19:23;16.43;;;4.43;;
17790;SDS011;9019;48.132;-1.210;2023-04-03T03:21:50;11.73;;;4.40;;
17790;SDS011;9019;48.132;-1.210;2023-04-03T03:24:17;10.67;;;4.23;;
17790;SDS011;9019;48.132;-1.210;2023-04-03T03:26:44;13.00;;;4.60;;
17790;SDS011;9019;48.132;-1.210;2023-04-03T03:29:12;11.57;;;4.40;;
17790;SDS011;9019;48.132;-1.210;2023-04-03T03:31:39;21.03;;;4.90;;
17790;SDS011;9019;48.132;-1.210;2023-04-03T03:34:07;19.57;;;5.20;;
17790;SDS011;9019;48.132;-1.210;2023-04-03T03:36:35;14.33;;;5.20;;
17790;SDS011;9019;48.132;-1.210;2023-04-03T03:39:02;14.37;;;5.90;;
17790;SDS011;9019;48.132;-1.210;2023-04-03T03:41:29;15.60;;;6.10;;
17790;SDS011;9019;48.132;-1.210;2023-04-03T03:43:56;10.33;;;5.53;;
17790;SDS011;9019;48.132;-1.210;2023-04-03T03:46:23;14.87;;;6.13;;
17790;SDS011;9019;48.132;-1.210;2023-04-03T03:48:51;16.10;;;6.30;;
17790;SDS011;9019;48.132;-1.210;2023-04-03T03:51:19;16.10;;;6.40;;
17790;SDS011;9019;48.132;-1.210;2023-04-03T03:53:46;16.10;;;5.90;;
17790;SDS011;9019;48.132;-1.210;2023-04-03T03:56:13;16.77;;;6.30;;
17790;SDS011;9019;48.132;-1.210;2023-04-03T03:58:41;12.70;;;6.13;;
17790;SDS011;9019;48.132;-1.210;2023-04-03T04:01:08;13.73;;;6.63;;
17790;SDS011;9019;48.132;-1.210;2023-04-03T04:03:35;15.80;;;6.77;;
17790;SDS011;9019;48.132;-1.210;2023-04-03T04:06:02;14.20;;;6.70;;
17790;SDS011;9019;48.132;-1.210;2023-04-03T04:08:31;12.20;;;6.70;;
17790;SDS011;9019;48.132;-1.210;2023-04-03T04:10:58;16.00;;;6.90;;
17790;SDS011;9019;48.132;-1.210;2023-04-03T04:13:25;18.37;;;7.70;;
17790;SDS011;9019;48.132;-1.210;2023-04-03T04:15:52;15.30;;;7.17;;
17790;SDS011;9019;48.132;-1.210;2023-04-03T04:18:20;14.60;;;7.20;;
17790;SDS011;9019;48.132;-1.210;2023-04-03T04:20:47;12.27;;;7.33;;
17790;SDS011;9019;48.132;-1.210;2023-04-03T04:23:15;14.03;;;7.70;;
17790;SDS011;9019;48.132;-1.210;2023-04-03T04:25:45;18.13;;;7.97;;
17790;SDS011;9019;48.132;-1.210;2023-04-03T04:28:12;15.17;;;7.40;;
17790;SDS011;9019;48.132;-1.210;2023-04-03T04:30:39;14.27;;;7.57;;
17790;SDS011;9019;48.132;-1.210;2023-04-03T04:33:07;16.23;;;7.73;;
17790;SDS011;9019;48.132;-1.210;2023-04-03T04:35:35;10.80;;;7.30;;
17790;SDS011;9019;48.132;-1.210;2023-04-03T04:38:02;15.50;;;7.87;;
17790;SDS011;9019;48.132;-1.210;2023-04-03T04:40:29;15.23;;;8.40;;
17790;SDS011;9019;48.132;-1.210;2023-04-03T04:42:58;13.77;;;8.13;;
17790;SDS011;9019;48.132;-1.210;2023-04-03T04:45:25;13.07;;;7.93;;
17790;SDS011;9019;48.132;-1.210;2023-04-03T04:47:54;15.03;;;7.83;;
17790;SDS011;9019;48.132;-1.210;2023-04-03T04:50:22;15.53;;;7.53;;
17790;SDS011;9019;48.132;-1.210;2023-04-03T04:52:49;11.33;;;7.50;;
17790;SDS011;9019;48.132;-1.210;2023-04-03T04:55:16;16.30;;;7.83;;
17790;SDS011;9019;48.132;-1.210;2023-04-03T04:57:43;15.03;;;7.80;;
17790;SDS011;9019;48.132;-1.210;2023-04-03T05:00:12;12.50;;;8.40;;
17790;SDS011;9019;48.132;-1.210;2023-04-03T05:02:40;12.47;;;7.83;;
17790;SDS011;9019;48.132;-1.210;2023-04-03T05:05:08;13.50;;;8.33;;
17790;SDS011;9019;48.132;-1.210;2023-04-03T05:07:35;12.27;;;8.17;;
17790;SDS011;9019;48.132;-1.210;2023-04-03T05:10:02;13.43;;;7.87;;
17790;SDS011;9019;48.132;-1.210;2023-04-03T05:12:30;11.53;;;8.03;;
17790;SDS011;9019;48.132;-1.210;2023-04-03T05:14:57;12.97;;;8.30;;
17790;SDS011;9019;48.132;-1.210;2023-04-03T05:17:26;12.77;;;8.90;;
17790;SDS011;9019;48.132;-1.210;2023-04-03T05:19:53;14.60;;;8.73;;
17790;SDS011;9019;48.132;-1.210;2023-04-03T05:22:20;12.57;;;8.63;;
17790;SDS011;9019;48.132;-1.210;2023-04-03T05:24:48;11.30;;;8.17;;
17790;SDS011;9019;48.132;-1.210;2023-04-03T05:27:15;11.10;;;8.47;;
17790;SDS011;9019;48.132;-1.210;2023-04-03T05:29:42;15.90;;;8.40;;
17790;SDS011;9019;48.132;-1.210;2023-04-03T05:32:10;12.53;;;7.93;;
17790;SDS011;9019;48.132;-1.210;2023-04-03T05:34:38;12.77;;;8.17;;
17790;SDS011;9019;48.132;-1.210;2023-04-03T05:37:05;12.07;;;8.47;;
17790;SDS011;9019;48.132;-1.210;2023-04-03T05:39:33;13.93;;;8.53;;
17790;SDS011;9019;48.132;-1.210;2023-04-03T05:42:00;11.87;;;9.07;;
17790;SDS011;9019;48.132;-1.210;2023-04-03T05:44:27;15.30;;;9.13;;
17790;SDS011;9019;48.132;-1.210;2023-04-03T05:46:54;13.90;;;8.40;;
17790;SDS011;9019;48.132;-1.210;2023-04-03T05:49:22;13.40;;;8.27;;
17790;SDS011;9019;48.132;-1.210;2023-04-03T05:51:50;14.73;;;8.67;;
17790;SDS011;9019;48.132;-1.210;2023-04-03T05:54:18;12.43;;;8.17;;
17790;SDS011;9019;48.132;-1.210;2023-04-03T05:56:46;14.33;;;8.60;;
17790;SDS011;9019;48.132;-1.210;2023-04-03T05:59:13;12.87;;;8.13;;
17790;SDS011;9019;48.132;-1.210;2023-04-03T06:01:40;10.73;;;8.40;;
17790;SDS011;9019;48.132;-1.210;2023-04-03T06:04:07;15.63;;;8.93;;
17790;SDS011;9019;48.132;-1.210;2023-04-03T06:06:45;12.57;;;8.43;;
17790;SDS011;9019;48.132;-1.210;2023-04-03T06:09:14;9.20;;;8.20;;
17790;SDS011;9019;48.132;-1.210;2023-04-03T06:11:41;12.87;;;8.23;;
17790;SDS011;9019;48.132;-1.210;2023-04-03T06:14:09;10.37;;;7.83;;
17790;SDS011;9019;48.132;-1.210;2023-04-03T06:16:36;11.37;;;8.00;;
17790;SDS011;9019;48.132;-1.210;2023-04-03T06:19:04;10.67;;;8.33;;
17790;SDS011;9019;48.132;-1.210;2023-04-03T06:21:31;12.90;;;8.60;;
17790;SDS011;9019;48.132;-1.210;2023-04-03T06:23:59;12.83;;;8.17;;
17790;SDS011;9019;48.132;-1.210;2023-04-03T06:26:28;11.23;;;8.00;;
17790;SDS011;9019;48.132;-1.210;2023-04-03T06:28:55;12.87;;;7.80;;
17790;SDS011;9019;48.132;-1.210;2023-04-03T06:31:22;11.10;;;8.63;;
17790;SDS011;9019;48.132;-1.210;2023-04-03T06:33:50;11.30;;;8.33;;
17790;SDS011;9019;48.132;-1.210;2023-04-03T06:36:18;12.73;;;8.50;;
17790;SDS011;9019;48.132;-1.210;2023-04-03T06:38:46;11.93;;;8.00;;
17790;SDS011;9019;48.132;-1.210;2023-04-03T06:41:13;10.63;;;7.60;;
17790;SDS011;9019;48.132;-1.210;2023-04-03T06:43:43;14.10;;;8.10;;
17790;SDS011;9019;48.132;-1.210;2023-04-03T06:46:12;11.93;;;8.13;;
17790;SDS011;9019;48.132;-1.210;2023-04-03T06:48:41;12.00;;;8.20;;
17790;SDS011;9019;48.132;-1.210;2023-04-03T06:51:12;12.30;;;8.20;;
17790;SDS011;9019;48.132;-1.210;2023-04-03T06:53:40;14.67;;;8.30;;
17790;SDS011;9019;48.132;-1.210;2023-04-03T06:56:07;11.50;;;8.33;;
17790;SDS011;9019;48.132;-1.210;2023-04-03T06:58:35;10.17;;;8.17;;
17790;SDS011;9019;48.132;-1.210;2023-04-03T07:01:04;13.63;;;8.30;;
17790;SDS011;9019;48.132;-1.210;2023-04-03T07:03:31;13.33;;;8.50;;
17790;SDS011;9019;48.132;-1.210;2023-04-03T07:05:58;11.67;;;8.33;;
17790;SDS011;9019;48.132;-1.210;2023-04-03T07:08:25;12.47;;;8.43;;
17790;SDS011;9019;48.132;-1.210;2023-04-03T07:10:53;10.43;;;8.00;;
17790;SDS011;9019;48.132;-1.210;2023-04-03T07:13:21;12.70;;;8.30;;
17790;SDS011;9019;48.132;-1.210;2023-04-03T07:15:48;12.93;;;8.50;;
17790;SDS011;9019;48.132;-1.210;2023-04-03T07:18:16;13.47;;;8.30;;
17790;SDS011;9019;48.132;-1.210;2023-04-03T07:20:44;13.53;;;8.80;;
17790;SDS011;9019;48.132;-1.210;2023-04-03T07:23:11;12.73;;;9.23;;
17790;SDS011;9019;48.132;-1.210;2023-04-03T07:25:41;12.13;;;8.70;;
17790;SDS011;9019;48.132;-1.210;2023-04-03T07:28:09;11.87;;;8.67;;
17790;SDS011;9019;48.132;-1.210;2023-04-03T07:30:41;12.60;;;9.13;;
17790;SDS011;9019;48.132;-1.210;2023-04-03T07:33:08;12.37;;;9.23;;
17790;SDS011;9019;48.132;-1.210;2023-04-03T07:35:38;16.10;;;9.50;;
17790;SDS011;9019;48.132;-1.210;2023-04-03T07:38:05;11.80;;;9.07;;
17790;SDS011;9019;48.132;-1.210;2023-04-03T07:40:33;13.07;;;9.37;;
17790;SDS011;9019;48.132;-1.210;2023-04-03T07:43:00;13.90;;;9.50;;
17790;SDS011;9019;48.132;-1.210;2023-04-03T07:45:27;13.77;;;9.43;;
17790;SDS011;9019;48.132;-1.210;2023-04-03T07:47:55;12.60;;;8.90;;
17790;SDS011;9019;48.132;-1.210;2023-04-03T07:50:22;13.37;;;9.53;;
17790;SDS011;9019;48.132;-1.210;2023-04-03T07:52:51;13.20;;;8.77;;
17790;SDS011;9019;48.132;-1.210;2023-04-03T07:55:19;12.83;;;9.13;;
17790;SDS011;9019;48.132;-1.210;2023-04-03T07:57:46;14.07;;;9.40;;
17790;SDS011;9019;48.132;-1.210;2023-04-03T08:00:14;13.83;;;9.23;;
17790;SDS011;9019;48.132;-1.210;2023-04-03T08:02:42;15.00;;;9.87;;
17790;SDS011;9019;48.132;-1.210;2023-04-03T08:05:15;14.13;;;10.30;;
17790;SDS011;9019;48.132;-1.210;2023-04-03T08:07:42;66.10;;;41.73;;
17790;SDS011;9019;48.132;-1.210;2023-04-03T08:10:11;39.80;;;29.40;;
17790;SDS011;9019;48.132;-1.210;2023-04-03T08:12:38;15.83;;;11.87;;
17790;SDS011;9019;48.132;-1.210;2023-04-03T08:15:06;29.63;;;25.90;;
17790;SDS011;9019;48.132;-1.210;2023-04-03T08:17:33;31.80;;;21.67;;
17790;SDS011;9019;48.132;-1.210;2023-04-03T08:20:00;17.97;;;13.50;;
17790;SDS011;9019;48.132;-1.210;2023-04-03T08:22:28;29.13;;;23.37;;
17790;SDS011;9019;48.132;-1.210;2023-04-03T08:24:55;36.93;;;29.13;;
17790;SDS011;9019;48.132;-1.210;2023-04-03T08:27:24;13.57;;;10.17;;
17790;SDS011;9019;48.132;-1.210;2023-04-03T08:29:51;20.23;;;15.37;;
17790;SDS011;9019;48.132;-1.210;2023-04-03T08:32:18;15.80;;;11.07;;
17790;SDS011;9019;48.132;-1.210;2023-04-03T08:34:46;16.50;;;11.10;;
17790;SDS011;9019;48.132;-1.210;2023-04-03T08:37:13;28.10;;;20.70;;
17790;SDS011;9019;48.132;-1.210;2023-04-03T08:39:41;28.33;;;20.37;;
17790;SDS011;9019;48.132;-1.210;2023-04-03T08:42:12;55.30;;;31.50;;
17790;SDS011;9019;48.132;-1.210;2023-04-03T08:44:45;35.47;;;24.30;;
17790;SDS011;9019;48.132;-1.210;2023-04-03T08:47:17;86.63;;;60.87;;
17790;SDS011;9019;48.132;-1.210;2023-04-03T08:49:46;80.67;;;53.30;;
17790;SDS011;9019;48.132;-1.210;2023-04-03T08:52:18;42.50;;;27.77;;
17790;SDS011;9019;48.132;-1.210;2023-04-03T08:54:48;184.50;;;97.73;;
17790;SDS011;9019;48.132;-1.210;2023-04-03T08:57:16;58.90;;;35.23;;
17790;SDS011;9019;48.132;-1.210;2023-04-03T08:59:45;105.70;;;56.23;;
17790;SDS011;9019;48.132;-1.210;2023-04-03T09:02:18;21.00;;;14.37;;
17790;SDS011;9019;48.132;-1.210;2023-04-03T09:04:47;101.17;;;59.37;;
17790;SDS011;9019;48.132;-1.210;2023-04-03T09:07:16;28.63;;;19.17;;
17790;SDS011;9019;48.132;-1.210;2023-04-03T09:09:48;39.17;;;27.27;;
17790;SDS011;9019;48.132;-1.210;2023-04-03T09:12:17;56.80;;;38.17;;
17790;SDS011;9019;48.132;-1.210;2023-04-03T09:14:49;64.83;;;40.63;;
17790;SDS011;9019;48.132;-1.210;2023-04-03T09:17:20;35.23;;;23.93;;
17790;SDS011;9019;48.132;-1.210;2023-04-03T09:19:49;63.63;;;41.90;;
17790;SDS011;9019;48.132;-1.210;2023-04-03T09:22:20;64.10;;;40.20;;
17790;SDS011;9019;48.132;-1.210;2023-04-03T09:24:49;97.53;;;56.53;;
17790;SDS011;9019;48.132;-1.210;2023-04-03T09:27:19;24.60;;;18.23;;
17790;SDS011;9019;48.132;-1.210;2023-04-03T09:29:47;13.10;;;9.53;;
17790;SDS011;9019;48.132;-1.210;2023-04-03T09:32:21;16.10;;;13.63;;
17790;SDS011;9019;48.132;-1.210;2023-04-03T09:34:48;13.03;;;9.60;;
17790;SDS011;9019;48.132;-1.210;2023-04-03T09:37:32;19.97;;;16.67;;
17790;SDS011;9019;48.132;-1.210;2023-04-03T09:40:00;12.03;;;9.60;;
17790;SDS011;9019;48.132;-1.210;2023-04-03T09:42:29;18.07;;;15.73;;
17790;SDS011;9019;48.132;-1.210;2023-04-03T09:44:59;24.17;;;20.03;;
17790;SDS011;9019;48.132;-1.210;2023-04-03T09:47:27;23.03;;;19.93;;
17790;SDS011;9019;48.132;-1.210;2023-04-03T09:50:09;14.07;;;11.67;;
17790;SDS011;9019;48.132;-1.210;2023-04-03T09:52:36;13.53;;;10.93;;
17790;SDS011;9019;48.132;-1.210;2023-04-03T09:55:06;21.27;;;17.87;;
17790;SDS011;9019;48.132;-1.210;2023-04-03T09:57:34;12.03;;;10.27;;
17790;SDS011;9019;48.132;-1.210;2023-04-03T10:00:03;12.67;;;9.63;;
17790;SDS011;9019;48.132;-1.210;2023-04-03T10:02:32;11.83;;;9.30;;
17790;SDS011;9019;48.132;-1.210;2023-04-03T10:05:01;12.03;;;9.67;;
17790;SDS011;9019;48.132;-1.210;2023-04-03T10:07:32;12.70;;;10.37;;
17790;SDS011;9019;48.132;-1.210;2023-04-03T10:10:00;11.43;;;8.93;;
17790;SDS011;9019;48.132;-1.210;2023-04-03T10:12:28;11.80;;;8.93;;
17790;SDS011;9019;48.132;-1.210;2023-04-03T10:14:56;12.47;;;11.17;;
17790;SDS011;9019;48.132;-1.210;2023-04-03T10:17:26;12.60;;;9.30;;
17790;SDS011;9019;48.132;-1.210;2023-04-03T10:20:00;10.43;;;9.03;;
17790;SDS011;9019;48.132;-1.210;2023-04-03T10:22:30;12.20;;;9.40;;
17790;SDS011;9019;48.132;-1.210;2023-04-03T10:25:07;11.97;;;9.63;;
17790;SDS011;9019;48.132;-1.210;2023-04-03T10:27:44;20.00;;;18.10;;
17790;SDS011;9019;48.132;-1.210;2023-04-03T10:30:19;13.47;;;10.33;;
17790;SDS011;9019;48.132;-1.210;2023-04-03T10:33:00;9.23;;;7.87;;
17790;SDS011;9019;48.132;-1.210;2023-04-03T10:35:37;9.73;;;8.30;;
17790;SDS011;9019;48.132;-1.210;2023-04-03T10:38:08;9.60;;;7.77;;
17790;SDS011;9019;48.132;-1.210;2023-04-03T10:40:38;10.33;;;8.63;;
17790;SDS011;9019;48.132;-1.210;2023-04-03T10:43:09;10.63;;;8.57;;
17790;SDS011;9019;48.132;-1.210;2023-04-03T10:45:48;10.37;;;9.17;;
17790;SDS011;9019;48.132;-1.210;2023-04-03T10:48:22;10.10;;;8.30;;
17790;SDS011;9019;48.132;-1.210;2023-04-03T10:50:53;9.53;;;8.40;;
17790;SDS011;9019;48.132;-1.210;2023-04-03T10:53:27;10.07;;;8.70;;
17790;SDS011;9019;48.132;-1.210;2023-04-03T10:55:58;10.90;;;8.83;;
17790;SDS011;9019;48.132;-1.210;2023-04-03T10:58:29;9.80;;;8.43;;
17790;SDS011;9019;48.132;-1.210;2023-04-03T11:00:57;10.00;;;8.20;;
17790;SDS011;9019;48.132;-1.210;2023-04-03T11:03:29;9.53;;;8.40;;
17790;SDS011;9019;48.132;-1.210;2023-04-03T11:05:58;8.63;;;7.70;;
17790;SDS011;9019;48.132;-1.210;2023-04-03T11:08:27;8.73;;;7.70;;
17790;SDS011;9019;48.132;-1.210;2023-04-03T11:10:57;8.93;;;8.03;;
17790;SDS011;9019;48.132;-1.210;2023-04-03T11:13:26;9.17;;;7.70;;
17790;SDS011;9019;48.132;-1.210;2023-04-03T11:15:55;8.03;;;6.57;;
17790;SDS011;9019;48.132;-1.210;2023-04-03T11:18:26;7.33;;;6.17;;
17790;SDS011;9019;48.132;-1.210;2023-04-03T11:20:58;6.87;;;6.23;;
17790;SDS011;9019;48.132;-1.210;2023-04-03T11:23:29;7.20;;;6.43;;
17790;SDS011;9019;48.132;-1.210;2023-04-03T11:26:00;7.10;;;6.40;;
17790;SDS011;9019;48.132;-1.210;2023-04-03T11:28:29;10.60;;;9.60;;
17790;SDS011;9019;48.132;-1.210;2023-04-03T11:30:58;7.37;;;6.53;;
17790;SDS011;9019;48.132;-1.210;2023-04-03T11:33:35;6.77;;;6.07;;
17790;SDS011;9019;48.132;-1.210;2023-04-03T11:36:06;7.60;;;6.80;;
17790;SDS011;9019;48.132;-1.210;2023-04-03T11:38:35;8.87;;;7.80;;
17790;SDS011;9019;48.132;-1.210;2023-04-03T11:41:04;8.30;;;7.27;;
17790;SDS011;9019;48.132;-1.210;2023-04-03T11:43:33;7.00;;;6.30;;
17790;SDS011;9019;48.132;-1.210;2023-04-03T11:46:02;7.23;;;6.37;;
17790;SDS011;9019;48.132;-1.210;2023-04-03T11:48:44;8.33;;;7.43;;
17790;SDS011;9019;48.132;-1.210;2023-04-03T11:56:46;7.70;;;7.00;;
17790;SDS011;9019;48.132;-1.210;2023-04-03T11:59:21;7.60;;;6.73;;
17790;SDS011;9019;48.132;-1.210;2023-04-03T12:01:49;7.87;;;6.77;;
17790;SDS011;9019;48.132;-1.210;2023-04-03T12:04:18;8.37;;;6.80;;
17790;SDS011;9019;48.132;-1.210;2023-04-03T12:09:33;6.70;;;6.00;;
17790;SDS011;9019;48.132;-1.210;2023-04-03T12:12:26;6.50;;;5.80;;
17790;SDS011;9019;48.132;-1.210;2023-04-03T12:14:52;6.90;;;6.20;;
17790;SDS011;9019;48.132;-1.210;2023-04-03T12:17:20;6.87;;;6.13;;
17790;SDS011;9019;48.132;-1.210;2023-04-03T12:19:50;8.70;;;7.37;;
17790;SDS011;9019;48.132;-1.210;2023-04-03T12:22:17;11.50;;;10.40;;
17790;SDS011;9019;48.132;-1.210;2023-04-03T12:24:46;9.77;;;8.87;;
17790;SDS011;9019;48.132;-1.210;2023-04-03T12:27:29;6.93;;;6.33;;
17790;SDS011;9019;48.132;-1.210;2023-04-03T12:30:01;7.10;;;6.40;;
17790;SDS011;9019;48.132;-1.210;2023-04-03T12:32:43;7.87;;;7.07;;
17790;SDS011;9019;48.132;-1.210;2023-04-03T12:35:16;11.80;;;10.57;;
17790;SDS011;9019;48.132;-1.210;2023-04-03T12:37:52;8.40;;;7.60;;
17790;SDS011;9019;48.132;-1.210;2023-04-03T12:40:25;7.22;;;6.53;;
17790;SDS011;9019;48.132;-1.210;2023-04-03T12:45:42;7.47;;;6.75;;
17790;SDS011;9019;48.132;-1.210;2023-04-03T12:48:12;8.07;;;7.28;;
17790;SDS011;9019;48.132;-1.210;2023-04-03T12:50:41;5.95;;;5.40;;
17790;SDS011;9019;48.132;-1.210;2023-04-03T12:53:11;33.20;;;29.60;;
17790;SDS011;9019;48.132;-1.210;2023-04-03T12:55:39;7.10;;;6.40;;
17790;SDS011;9019;48.132;-1.210;2023-04-03T12:58:13;6.30;;;5.70;;
17790;SDS011;9019;48.132;-1.210;2023-04-03T13:00:42;7.53;;;6.83;;
17790;SDS011;9019;48.132;-1.210;2023-04-03T13:03:19;6.13;;;5.53;;
17790;SDS011;9019;48.132;-1.210;2023-04-03T13:05:48;5.97;;;5.40;;
17790;SDS011;9019;48.132;-1.210;2023-04-03T13:08:15;11.83;;;10.73;;
17790;SDS011;9019;48.132;-1.210;2023-04-03T13:10:49;6.20;;;5.60;;
17790;SDS011;9019;48.132;-1.210;2023-04-03T13:13:17;8.23;;;7.07;;
17790;SDS011;9019;48.132;-1.210;2023-04-03T13:15:46;7.00;;;6.03;;
17790;SDS011;9019;48.132;-1.210;2023-04-03T13:18:22;6.97;;;6.27;;
17790;SDS011;9019;48.132;-1.210;2023-04-03T13:20:49;6.77;;;6.17;;
17790;SDS011;9019;48.132;-1.210;2023-04-03T13:23:17;6.70;;;6.00;;
17790;SDS011;9019;48.132;-1.210;2023-04-03T13:25:45;9.97;;;9.00;;
17790;SDS011;9019;48.132;-1.210;2023-04-03T13:28:14;11.60;;;9.90;;
17790;SDS011;9019;48.132;-1.210;2023-04-03T13:30:55;9.60;;;8.60;;
17790;SDS011;9019;48.132;-1.210;2023-04-03T13:33:24;10.00;;;9.00;;
17790;SDS011;9019;48.132;-1.210;2023-04-03T13:35:55;7.05;;;6.35;;
17790;SDS011;9019;48.132;-1.210;2023-04-03T13:38:25;7.45;;;6.75;;
17790;SDS011;9019;48.132;-1.210;2023-04-03T13:40:53;6.15;;;5.60;;
17790;SDS011;9019;48.132;-1.210;2023-04-03T13:43:21;11.65;;;10.52;;
17790;SDS011;9019;48.132;-1.210;2023-04-03T13:45:55;7.85;;;6.82;;
17790;SDS011;9019;48.132;-1.210;2023-04-03T13:48:23;23.10;;;20.80;;
17790;SDS011;9019;48.132;-1.210;2023-04-03T13:50:55;7.30;;;6.68;;
17790;SDS011;9019;48.132;-1.210;2023-04-03T13:53:23;6.32;;;5.65;;
17790;SDS011;9019;48.132;-1.210;2023-04-03T13:55:52;5.93;;;5.32;;
17790;SDS011;9019;48.132;-1.210;2023-04-03T13:58:21;5.85;;;5.35;;
17790;SDS011;9019;48.132;-1.210;2023-04-03T14:00:50;10.55;;;9.35;;
17790;SDS011;9019;48.132;-1.210;2023-04-03T14:03:20;6.65;;;5.97;;
17790;SDS011;9019;48.132;-1.210;2023-04-03T14:05:48;11.70;;;10.30;;
17790;SDS011;9019;48.132;-1.210;2023-04-03T14:08:15;10.00;;;9.00;;
17790;SDS011;9019;48.132;-1.210;2023-04-03T14:10:43;10.02;;;8.98;;
17790;SDS011;9019;48.132;-1.210;2023-04-03T14:13:11;12.38;;;10.80;;
17790;SDS011;9019;48.132;-1.210;2023-04-03T14:15:39;13.90;;;12.43;;
17790;SDS011;9019;48.132;-1.210;2023-04-03T14:18:06;26.45;;;22.17;;
17790;SDS011;9019;48.132;-1.210;2023-04-03T14:20:34;19.52;;;15.88;;
17790;SDS011;9019;48.132;-1.210;2023-04-03T14:23:02;8.07;;;7.20;;
17790;SDS011;9019;48.132;-1.210;2023-04-03T14:25:29;12.50;;;11.20;;
17790;SDS011;9019;48.132;-1.210;2023-04-03T14:27:56;7.32;;;6.47;;
17790;SDS011;9019;48.132;-1.210;2023-04-03T14:30:26;7.47;;;6.68;;
17790;SDS011;9019;48.132;-1.210;2023-04-03T14:32:53;7.65;;;6.85;;
17790;SDS011;9019;48.132;-1.210;2023-04-03T14:35:20;7.20;;;6.50;;
17790;SDS011;9019;48.132;-1.210;2023-04-03T14:37:49;6.47;;;5.88;;
17790;SDS011;9019;48.132;-1.210;2023-04-03T14:40:19;8.82;;;7.93;;
17790;SDS011;9019;48.132;-1.210;2023-04-03T14:42:46;28.13;;;25.20;;
17790;SDS011;9019;48.132;-1.210;2023-04-03T14:45:14;9.88;;;8.95;;
17790;SDS011;9019;48.132;-1.210;2023-04-03T14:47:42;6.97;;;6.28;;
17790;SDS011;9019;48.132;-1.210;2023-04-03T14:50:12;7.45;;;6.30;;
17790;SDS011;9019;48.132;-1.210;2023-04-03T14:52:40;9.40;;;8.50;;
17790;SDS011;9019;48.132;-1.210;2023-04-03T14:55:11;18.83;;;14.85;;
17790;SDS011;9019;48.132;-1.210;2023-04-03T14:57:38;7.43;;;6.70;;
17790;SDS011;9019;48.132;-1.210;2023-04-03T15:00:07;23.10;;;18.40;;